Time;durP1;ratioP1;P1;durP2;ratioP2;P2;SDS_P1;SDS_P2;PMS_P1;PMS_P2;Temp;Humidity;BMP_temperature;BMP_pressure;BME280_temperature;BME280_humidity;BME280_pressure;Samples;Min_cycle;Max_cycle;Signal;HPM_P1;HPM_P2
2021/09/09 00:01:22;;;;;;;11.98;4.50;;;19.60;99.90;;;19.31;100.00;100680.09;4152730;28;20030;-69
2021/09/09 00:03:23;;;;;;;9.07;4.00;;;19.60;99.90;;;19.26;100.00;100680.72;4162240;28;20022;-68
2021/09/09 00:05:23;;;;;;;7.57;3.72;;;19.50;99.90;;;19.23;100.00;100677.69;4156164;28;20076;-69
2021/09/09 00:07:24;;;;;;;4.60;3.63;;;19.50;99.90;;;19.20;100.00;100678.09;4152395;28;20037;-68
2021/09/09 00:09:25;;;;;;;7.53;4.22;;;19.50;99.90;;;19.28;100.00;100686.69;4152622;28;20095;-69
2021/09/09 00:11:27;;;;;;;6.35;3.45;;;19.50;99.90;;;19.28;100.00;100678.69;4152683;28;20104;-68
2021/09/09 00:13:27;;;;;;;6.95;4.25;;;19.50;99.90;;;19.29;100.00;100661.56;4152358;28;20113;-69
2021/09/09 00:15:29;;;;;;;7.50;3.55;;;19.50;99.90;;;19.30;100.00;100675.78;4152291;28;20025;-69
2021/09/09 00:17:30;;;;;;;8.32;3.50;;;19.50;99.90;;;19.27;100.00;100674.34;4152405;28;20026;-68
2021/09/09 00:19:30;;;;;;;7.18;3.20;;;19.50;99.90;;;19.24;100.00;100671.28;4152320;28;20029;-69
2021/09/09 00:21:31;;;;;;;5.35;2.72;;;19.50;99.90;;;19.19;100.00;100665.75;4152040;28;20108;-68
2021/09/09 00:23:32;;;;;;;7.72;3.10;;;19.40;99.90;;;19.22;100.00;100678.72;4152209;28;20112;-69
2021/09/09 00:25:33;;;;;;;8.48;3.58;;;19.40;99.90;;;19.22;100.00;100682.19;4152376;28;20025;-69
2021/09/09 00:27:34;;;;;;;4.63;3.55;;;19.40;99.90;;;19.19;100.00;100673.78;4152234;28;20057;-69
2021/09/09 00:29:35;;;;;;;5.40;2.65;;;19.50;99.90;;;19.10;100.00;100670.53;4152188;28;20508;-69
2021/09/09 00:31:36;;;;;;;10.95;3.80;;;19.50;99.90;;;19.09;100.00;100681.44;4152048;28;20033;-68
2021/09/09 00:33:38;;;;;;;6.60;3.25;;;19.50;99.90;;;19.15;100.00;100675.22;4152221;28;20041;-69
2021/09/09 00:35:39;;;;;;;5.93;3.40;;;19.50;99.90;;;19.21;100.00;100661.00;4152275;28;20018;-68
2021/09/09 00:37:41;;;;;;;6.53;3.03;;;19.50;99.90;;;19.23;100.00;100673.13;4151939;28;20034;-69
2021/09/09 00:39:42;;;;;;;5.40;2.70;;;19.50;99.90;;;19.20;100.00;100672.75;4151864;28;20026;-69
2021/09/09 00:41:43;;;;;;;4.28;3.08;;;19.50;99.90;;;19.30;100.00;100673.94;4152113;28;20487;-69
2021/09/09 00:43:44;;;;;;;5.53;3.28;;;19.50;99.90;;;19.39;100.00;100671.84;4152162;28;20386;-69
2021/09/09 00:45:56;;;;;;;7.72;3.03;;;19.50;99.90;;;19.26;100.00;100671.91;4152070;28;20050;-69
2021/09/09 00:47:57;;;;;;;5.60;3.03;;;19.60;99.90;;;19.26;100.00;100683.41;4152175;28;20038;-69
2021/09/09 00:49:58;;;;;;;4.35;2.60;;;19.60;99.90;;;19.25;100.00;100684.44;4152160;28;20393;-69
2021/09/09 00:52:00;;;;;;;7.22;3.25;;;19.60;99.90;;;19.29;100.00;100682.97;4161107;28;20032;-69
2021/09/09 00:54:01;;;;;;;8.48;2.67;;;19.60;99.90;;;19.24;100.00;100672.09;4156063;28;20116;-69
2021/09/09 00:56:02;;;;;;;4.45;2.58;;;19.60;99.90;;;19.19;100.00;100674.59;4150696;28;20030;-69
2021/09/09 00:58:03;;;;;;;4.68;2.75;;;19.60;99.90;;;19.22;100.00;100673.34;4142553;28;20145;-69
2021/09/09 01:00:06;;;;;;;4.35;2.17;;;19.50;99.90;;;19.24;100.00;100677.44;4155531;28;20037;-69
2021/09/09 01:02:07;;;;;;;4.78;2.63;;;19.60;99.90;;;19.29;100.00;100676.81;4155527;28;20026;-69
2021/09/09 01:04:08;;;;;;;5.97;2.50;;;19.60;99.90;;;19.34;100.00;100672.47;4168436;28;20034;-69
2021/09/09 01:06:09;;;;;;;3.90;2.30;;;19.60;99.90;;;19.33;100.00;100670.81;4155188;28;20060;-68
2021/09/09 01:08:11;;;;;;;6.80;2.42;;;19.60;99.90;;;19.48;100.00;100675.06;4154073;28;20031;-69
2021/09/09 01:10:12;;;;;;;5.47;2.58;;;19.60;99.90;;;19.44;100.00;100673.88;4151011;28;20028;-69
2021/09/09 01:12:13;;;;;;;4.68;1.77;;;19.60;99.90;;;19.47;100.00;100663.59;4154041;28;20034;-69
2021/09/09 01:14:16;;;;;;;5.82;2.50;;;19.70;99.90;;;19.40;100.00;100678.84;4144404;28;20029;-69
2021/09/09 01:16:19;;;;;;;6.05;1.90;;;19.70;99.90;;;19.39;100.00;100677.19;4155096;28;20042;-68
2021/09/09 01:18:20;;;;;;;6.78;2.28;;;19.60;99.90;;;19.36;100.00;100666.88;4155017;28;20037;-68
2021/09/09 01:20:21;;;;;;;5.47;2.45;;;19.60;99.90;;;19.38;100.00;100670.19;4155117;28;20121;-69
2021/09/09 01:22:22;;;;;;;6.07;2.20;;;19.60;99.90;;;19.38;100.00;100669.38;4154874;28;20026;-69
2021/09/09 01:24:23;;;;;;;7.10;2.05;;;19.60;99.90;;;19.37;100.00;100657.00;4154006;28;20025;-68
2021/09/09 01:26:27;;;;;;;7.45;2.08;;;19.60;99.90;;;19.39;100.00;100669.16;4151082;28;20080;-68
2021/09/09 01:28:28;;;;;;;8.38;2.10;;;19.60;99.90;;;19.32;100.00;100661.16;4154809;28;20109;-69
2021/09/09 01:30:30;;;;;;;6.85;2.17;;;19.60;99.90;;;19.33;100.00;100670.81;4154973;28;20022;-69
2021/09/09 01:32:31;;;;;;;6.97;2.20;;;19.60;99.90;;;19.25;100.00;100659.56;4155027;28;20374;-69
2021/09/09 01:34:32;;;;;;;8.35;2.22;;;19.60;99.90;;;19.22;100.00;100659.97;4154857;28;20033;-69
2021/09/09 01:36:33;;;;;;;8.80;2.63;;;19.60;99.90;;;19.20;100.00;100646.03;4154722;28;20037;-68
2021/09/09 01:38:34;;;;;;;6.60;2.20;;;19.60;99.90;;;19.33;100.00;100657.44;4154694;28;20105;-69
2021/09/09 01:40:35;;;;;;;6.00;2.28;;;19.60;99.90;;;19.28;100.00;100659.13;4154857;28;20041;-68
2021/09/09 01:42:36;;;;;;;7.20;2.35;;;19.60;99.90;;;19.39;100.00;100663.81;4154821;28;20072;-69
2021/09/09 01:44:37;;;;;;;6.80;2.85;;;19.60;99.90;;;19.34;100.00;100653.75;4154876;28;20034;-68
2021/09/09 01:46:38;;;;;;;4.75;1.67;;;19.60;99.90;;;19.27;100.00;100654.81;4154695;28;20026;-68
2021/09/09 01:48:39;;;;;;;6.22;1.88;;;19.60;99.90;;;19.31;100.00;100648.81;4154808;28;20507;-69
2021/09/09 01:50:40;;;;;;;11.32;2.33;;;19.60;99.90;;;19.30;100.00;100655.19;4154717;28;20088;-68
2021/09/09 01:52:41;;;;;;;7.32;2.40;;;19.60;99.90;;;19.30;100.00;100657.88;4153378;28;20464;-68
2021/09/09 01:54:42;;;;;;;8.80;3.72;;;19.60;99.90;;;19.22;100.00;100651.97;4144124;28;20030;-68
2021/09/09 01:56:44;;;;;;;7.13;2.05;;;19.60;99.90;;;19.24;100.00;100652.56;4154705;28;20064;-68
2021/09/09 01:58:45;;;;;;;5.68;2.42;;;19.60;99.90;;;19.24;100.00;100648.03;4154549;28;20061;-68
2021/09/09 02:00:46;;;;;;;6.18;2.50;;;19.60;99.90;;;19.24;100.00;100653.38;4154486;28;20034;-68
2021/09/09 02:02:46;;;;;;;8.07;2.72;;;19.50;99.90;;;19.21;100.00;100653.81;4159168;28;20036;-69
2021/09/09 02:04:47;;;;;;;7.18;2.80;;;19.50;99.90;;;19.30;100.00;100652.53;4162956;28;20053;-69
2021/09/09 02:06:49;;;;;;;8.05;2.13;;;19.60;99.90;;;19.20;100.00;100649.47;4154304;28;20433;-68
2021/09/09 02:08:50;;;;;;;6.03;2.28;;;19.50;99.90;;;19.22;100.00;100658.13;4154492;28;20460;-68
2021/09/09 02:10:51;;;;;;;11.13;3.05;;;19.50;99.90;;;19.18;100.00;100653.41;4154452;28;20104;-69
2021/09/09 02:12:52;;;;;;;5.40;2.15;;;19.50;99.90;;;19.21;100.00;100652.97;4154459;28;20054;-69
2021/09/09 02:14:53;;;;;;;5.18;2.20;;;19.50;99.90;;;19.16;100.00;100642.13;4154391;28;20463;-69
2021/09/09 02:16:54;;;;;;;6.30;2.42;;;19.50;99.90;;;19.17;100.00;100651.78;4154250;28;20171;-68
2021/09/09 02:18:57;;;;;;;7.55;2.38;;;19.50;99.90;;;19.21;100.00;100658.34;4154279;28;20389;-68
2021/09/09 02:20:58;;;;;;;7.28;2.10;;;19.50;99.90;;;19.18;100.00;100654.25;4154298;28;20041;-68
2021/09/09 02:22:59;;;;;;;10.15;2.97;;;19.60;99.90;;;19.21;100.00;100656.47;4153031;28;20033;-68
2021/09/09 02:25:00;;;;;;;4.70;2.50;;;19.50;99.90;;;19.22;100.00;100650.13;4151926;28;20030;-68
2021/09/09 02:27:01;;;;;;;10.50;2.75;;;19.60;99.90;;;19.26;100.00;100650.50;4154179;28;20026;-68
2021/09/09 02:29:02;;;;;;;8.55;2.63;;;19.60;99.90;;;19.29;100.00;100642.84;4154331;28;20034;-68
2021/09/09 02:31:03;;;;;;;5.75;2.38;;;19.60;99.90;;;19.29;100.00;100645.53;4154167;28;20041;-68
2021/09/09 02:33:04;;;;;;;4.97;2.33;;;19.60;99.90;;;19.27;100.00;100652.97;4154177;28;20057;-69
2021/09/09 02:35:06;;;;;;;5.53;2.30;;;19.60;99.90;;;19.31;100.00;100638.13;4153761;28;20607;-69
2021/09/09 02:37:07;;;;;;;4.03;2.13;;;19.60;99.90;;;19.28;100.00;100643.09;4154009;28;20029;-69
2021/09/09 02:39:08;;;;;;;8.93;2.30;;;19.60;99.90;;;19.24;100.00;100639.19;4153718;28;20061;-69
2021/09/09 02:41:09;;;;;;;8.77;2.38;;;19.60;99.90;;;19.22;100.00;100635.91;4153890;28;20033;-69
2021/09/09 02:43:10;;;;;;;7.90;2.55;;;19.60;99.90;;;19.25;100.00;100640.84;4154072;28;20033;-69
2021/09/09 02:45:11;;;;;;;7.97;3.15;;;19.60;99.90;;;19.24;100.00;100637.34;4153953;28;20034;-69
2021/09/09 02:47:12;;;;;;;9.27;2.20;;;19.60;99.90;;;19.30;100.00;100636.47;4153801;28;20396;-69
2021/09/09 02:49:13;;;;;;;9.18;2.47;;;19.60;99.90;;;19.30;100.00;100643.69;4167080;28;20029;-69
2021/09/09 02:51:14;;;;;;;8.57;2.63;;;19.60;99.90;;;19.24;100.00;100640.00;4153798;28;20037;-69
2021/09/09 02:53:15;;;;;;;9.73;2.67;;;19.50;99.90;;;19.32;100.00;100637.06;4153869;28;20477;-69
2021/09/09 02:55:16;;;;;;;6.35;2.10;;;19.60;99.90;;;19.30;100.00;100633.81;4153808;28;20025;-69
2021/09/09 02:57:17;;;;;;;9.82;2.55;;;19.60;99.90;;;19.34;100.00;100635.03;4153654;28;20072;-69
2021/09/09 02:59:18;;;;;;;10.88;2.85;;;19.60;99.90;;;19.24;100.00;100617.78;4153790;28;20041;-69
2021/09/09 03:01:19;;;;;;;9.73;2.78;;;19.60;99.90;;;19.30;100.00;100635.66;4153806;28;20435;-69
2021/09/09 03:03:21;;;;;;;9.98;3.53;;;19.60;99.90;;;19.31;100.00;100629.28;4162838;28;20480;-69
2021/09/09 03:05:22;;;;;;;11.55;2.80;;;19.60;99.90;;;19.40;100.00;100637.88;4156369;28;20026;-70
2021/09/09 03:07:23;;;;;;;11.93;2.90;;;19.60;99.90;;;19.35;100.00;100625.94;4152975;28;20101;-69
2021/09/09 03:09:24;;;;;;;7.90;2.95;;;19.60;99.90;;;19.37;100.00;100641.78;4153678;28;20030;-69
2021/09/09 03:11:26;;;;;;;11.65;3.40;;;19.60;99.90;;;19.29;100.00;100640.19;4153555;28;20508;-69
2021/09/09 03:13:27;;;;;;;6.88;2.80;;;19.60;99.90;;;19.25;100.00;100638.16;4153706;28;20080;-69
2021/09/09 03:15:28;;;;;;;11.40;2.63;;;19.60;99.90;;;19.34;100.00;100636.88;4153319;28;20041;-69
2021/09/09 03:17:29;;;;;;;6.68;2.58;;;19.60;99.90;;;19.36;100.00;100634.78;4153507;28;20030;-69
2021/09/09 03:19:30;;;;;;;6.00;2.10;;;19.60;99.90;;;19.30;100.00;100632.97;4153392;28;20408;-69
2021/09/09 03:21:31;;;;;;;6.40;2.03;;;19.60;99.90;;;19.26;100.00;100631.78;4152768;28;20022;-69
2021/09/09 03:23:32;;;;;;;6.45;2.22;;;19.60;99.90;;;19.31;100.00;100632.78;4153228;28;20131;-69
2021/09/09 03:25:33;;;;;;;6.65;2.10;;;19.60;99.90;;;19.29;100.00;100631.34;4153288;28;20091;-69
2021/09/09 03:27:34;;;;;;;8.07;2.70;;;19.60;99.90;;;19.18;100.00;100627.50;4153445;28;20058;-69
2021/09/09 03:29:35;;;;;;;8.88;2.75;;;19.60;99.90;;;19.22;100.00;100633.25;4153400;28;20586;-69
2021/09/09 03:31:36;;;;;;;6.07;2.10;;;19.50;99.90;;;19.16;100.00;100636.78;4153149;28;20026;-69
2021/09/09 03:33:37;;;;;;;6.93;2.80;;;19.50;99.90;;;19.23;100.00;100634.88;4153179;28;20069;-69
2021/09/09 03:35:38;;;;;;;8.80;2.88;;;19.50;99.90;;;19.17;100.00;100630.41;4153293;28;20080;-69
2021/09/09 03:37:39;;;;;;;7.38;2.60;;;19.50;99.90;;;19.20;100.00;100630.75;4152016;28;20029;-69
2021/09/09 03:39:40;;;;;;;9.90;2.75;;;19.50;99.90;;;19.12;100.00;100632.88;4155626;28;20045;-69
2021/09/09 03:41:41;;;;;;;10.02;2.65;;;19.40;99.90;;;19.08;100.00;100642.38;4157075;28;20041;-69
2021/09/09 03:43:42;;;;;;;8.52;2.58;;;19.40;99.90;;;19.07;100.00;100635.38;4161718;28;20025;-69
2021/09/09 03:45:43;;;;;;;12.18;3.00;;;19.40;99.90;;;19.02;100.00;100633.38;4153000;28;20109;-69
2021/09/09 03:47:44;;;;;;;10.05;3.08;;;19.40;99.90;;;19.00;100.00;100635.41;4153000;28;20022;-69
2021/09/09 03:49:45;;;;;;;6.78;2.30;;;19.40;99.90;;;19.10;100.00;100635.78;4152902;28;20029;-69
2021/09/09 03:51:46;;;;;;;6.07;2.15;;;19.40;99.90;;;19.05;100.00;100619.56;4155460;28;20017;-68
2021/09/09 03:53:47;;;;;;;7.35;2.67;;;19.40;99.90;;;19.07;100.00;100616.66;4160731;28;20037;-69
2021/09/09 03:55:48;;;;;;;8.57;2.63;;;19.40;99.90;;;19.07;100.00;100625.50;4152704;28;20026;-69
2021/09/09 03:57:49;;;;;;;9.57;2.90;;;19.30;99.90;;;19.06;100.00;100617.69;4153080;28;20548;-69
2021/09/09 03:59:50;;;;;;;10.50;3.30;;;19.40;99.90;;;19.10;100.00;100610.88;4152792;28;20026;-69
2021/09/09 04:01:51;;;;;;;9.93;2.47;;;19.30;99.90;;;19.11;100.00;100618.72;4152718;28;20544;-69
2021/09/09 04:03:51;;;;;;;9.82;2.35;;;19.30;99.90;;;19.12;100.00;100619.50;4157900;28;20033;-69
2021/09/09 04:05:52;;;;;;;8.77;2.72;;;19.30;99.90;;;19.12;100.00;100616.84;4162001;28;20034;-69
2021/09/09 04:07:53;;;;;;;10.07;2.65;;;19.30;99.90;;;19.19;100.00;100620.31;4159203;28;20080;-69
2021/09/09 04:09:54;;;;;;;10.60;2.90;;;19.30;99.90;;;19.25;100.00;100616.75;4161136;28;20040;-69
2021/09/09 04:11:55;;;;;;;8.73;2.88;;;19.40;99.90;;;19.12;100.00;100614.16;4158172;28;20393;-69
2021/09/09 04:13:56;;;;;;;11.60;3.70;;;19.30;99.90;;;19.11;100.00;100613.38;4159052;28;20028;-70
2021/09/09 04:15:57;;;;;;;9.32;2.55;;;19.30;99.90;;;19.11;100.00;100617.88;4159767;28;20030;-68
2021/09/09 04:17:58;;;;;;;10.43;3.15;;;19.40;99.90;;;19.15;100.00;100614.56;4152553;28;20568;-69
2021/09/09 04:19:59;;;;;;;10.07;2.88;;;19.40;99.90;;;19.09;100.00;100611.91;4152582;28;20115;-69
2021/09/09 04:22:03;;;;;;;11.88;2.65;;;19.40;99.90;;;19.04;100.00;100623.25;4152332;28;20036;-68
2021/09/09 04:24:04;;;;;;;8.38;2.70;;;19.30;99.90;;;18.97;100.00;100617.13;4152511;28;20025;-69
2021/09/09 04:26:05;;;;;;;9.32;2.65;;;19.30;99.90;;;19.00;100.00;100614.03;4152700;28;20039;-69
2021/09/09 04:28:06;;;;;;;9.60;3.45;;;19.30;99.90;;;18.94;100.00;100612.19;4152511;28;20022;-69
2021/09/09 04:30:08;;;;;;;9.38;3.05;;;19.30;99.90;;;19.01;100.00;100620.19;4152511;28;20040;-69
2021/09/09 04:32:09;;;;;;;11.55;3.00;;;19.30;99.90;;;19.07;100.00;100614.00;4151754;28;20022;-69
2021/09/09 04:34:10;;;;;;;12.13;3.15;;;19.30;99.90;;;19.09;100.00;100612.75;4152171;28;20033;-68
2021/09/09 04:36:11;;;;;;;10.48;2.72;;;19.30;99.90;;;19.13;100.00;100611.28;4152256;28;20030;-69
2021/09/09 04:38:12;;;;;;;9.35;3.00;;;19.30;99.90;;;19.10;100.00;100606.38;4135277;28;20058;-69
2021/09/09 04:40:13;;;;;;;8.35;2.53;;;19.30;99.90;;;19.09;100.00;100611.91;4135055;28;20117;-69
2021/09/09 04:42:14;;;;;;;11.55;3.55;;;19.30;99.90;;;19.08;100.00;100604.94;4136058;28;20030;-69
2021/09/09 04:44:15;;;;;;;12.10;3.10;;;19.40;99.90;;;19.13;100.00;100597.91;4136142;28;20050;-69
2021/09/09 04:46:16;;;;;;;11.88;3.60;;;19.40;99.90;;;19.12;100.00;100603.47;4135982;28;20019;-69
2021/09/09 04:48:17;;;;;;;9.32;3.65;;;19.40;99.90;;;19.21;100.00;100604.84;4136068;28;20061;-68
2021/09/09 04:50:18;;;;;;;9.82;3.40;;;19.40;99.90;;;19.08;100.00;100599.59;4136245;28;20041;-69
2021/09/09 04:52:19;;;;;;;11.10;3.17;;;19.30;99.90;;;19.11;100.00;100600.00;4135933;28;20520;-69
2021/09/09 04:54:21;;;;;;;12.93;3.33;;;19.30;99.90;;;19.08;100.00;100599.59;4135990;28;20104;-69
2021/09/09 04:56:21;;;;;;;10.32;3.10;;;19.30;99.90;;;19.03;100.00;100596.72;4136213;28;20402;-69
2021/09/09 04:58:22;;;;;;;6.43;2.63;;;19.30;99.90;;;19.00;100.00;100602.50;4136020;28;20038;-69
2021/09/09 05:00:23;;;;;;;11.00;2.60;;;19.30;99.90;;;18.99;100.00;100591.00;4135935;28;20031;-69
2021/09/09 05:02:24;;;;;;;11.48;3.17;;;19.30;99.90;;;18.94;100.00;100590.00;4136131;28;20030;-69
2021/09/09 05:04:25;;;;;;;10.52;2.78;;;19.30;99.90;;;19.07;100.00;100611.31;4147788;28;20032;-69
2021/09/09 05:06:26;;;;;;;6.13;3.08;;;19.30;99.90;;;19.15;100.00;100613.72;4135787;28;20034;-69
2021/09/09 05:08:27;;;;;;;10.32;3.53;;;19.30;99.90;;;19.05;100.00;100605.38;4135913;28;20458;-69
2021/09/09 05:10:28;;;;;;;7.43;3.40;;;19.30;99.90;;;18.99;100.00;100607.06;4135770;28;20065;-69
2021/09/09 05:12:29;;;;;;;17.67;4.82;;;19.30;99.90;;;19.02;100.00;100611.16;4135969;28;20026;-69
2021/09/09 05:14:30;;;;;;;11.65;3.20;;;19.30;99.90;;;19.00;100.00;100613.19;4136006;28;20069;-69
2021/09/09 05:16:31;;;;;;;8.60;3.50;;;19.30;99.90;;;19.05;100.00;100610.72;4135851;28;20114;-69
2021/09/09 05:18:32;;;;;;;9.30;3.20;;;19.30;99.90;;;19.15;100.00;100611.88;4135678;28;20057;-69
2021/09/09 05:20:33;;;;;;;9.95;3.08;;;19.40;99.90;;;19.08;100.00;100605.78;4136030;28;20022;-69
2021/09/09 05:22:34;;;;;;;7.90;2.85;;;19.40;99.90;;;19.11;100.00;100609.88;4135720;28;20041;-69
2021/09/09 05:24:35;;;;;;;9.20;3.17;;;19.40;99.90;;;19.08;100.00;100616.47;4136013;28;20436;-69
2021/09/09 05:26:36;;;;;;;8.15;3.40;;;19.40;99.90;;;19.12;100.00;100608.81;4135926;28;20062;-69
2021/09/09 05:28:37;;;;;;;7.90;2.90;;;19.40;99.90;;;19.14;100.00;100620.97;4135733;28;20027;-69
2021/09/09 05:30:38;;;;;;;8.10;3.33;;;19.40;99.90;;;19.13;100.00;100621.97;4135821;28;20026;-69
2021/09/09 05:32:39;;;;;;;8.23;2.97;;;19.40;99.90;;;19.00;100.00;100613.19;4135703;28;20022;-69
2021/09/09 05:34:40;;;;;;;9.20;3.10;;;19.40;99.90;;;19.05;100.00;100616.91;4135883;28;20034;-69
2021/09/09 05:36:41;;;;;;;12.98;3.05;;;19.30;99.90;;;18.99;100.00;100609.72;4135461;28;20019;-69
2021/09/09 05:38:42;;;;;;;8.70;2.70;;;19.30;99.90;;;18.96;100.00;100615.50;4134835;28;20105;-69
2021/09/09 05:40:43;;;;;;;9.55;2.85;;;19.30;99.90;;;19.07;100.00;100627.34;4135630;28;20105;-69
2021/09/09 05:42:44;;;;;;;7.53;3.17;;;19.30;99.90;;;18.93;100.00;100617.78;4135549;28;20038;-69
2021/09/09 05:44:45;;;;;;;12.98;3.95;;;19.30;99.90;;;18.98;100.00;100620.63;4137705;28;20038;-69
2021/09/09 05:46:46;;;;;;;10.65;3.47;;;19.20;99.90;;;19.01;100.00;100622.88;4138573;28;20109;-69
2021/09/09 05:48:47;;;;;;;9.10;3.33;;;19.30;99.90;;;19.00;100.00;100615.88;4138743;28;20034;-69
2021/09/09 05:50:48;;;;;;;9.27;3.00;;;19.30;99.90;;;18.93;100.00;100617.78;4138302;28;20053;-69
2021/09/09 05:52:49;;;;;;;10.38;3.47;;;19.30;99.90;;;19.01;100.00;100617.53;4138429;28;20025;-69
2021/09/09 05:54:50;;;;;;;17.85;3.22;;;19.30;99.90;;;19.16;100.00;100618.06;4138542;28;20037;-69
2021/09/09 05:56:50;;;;;;;10.18;3.20;;;19.30;99.90;;;19.02;100.00;100605.81;4137565;28;20026;-69
2021/09/09 05:58:52;;;;;;;10.48;3.80;;;19.40;99.90;;;19.12;100.00;100611.47;4138088;28;20030;-69
2021/09/09 06:00:53;;;;;;;11.50;3.45;;;19.40;99.90;;;19.13;100.00;100619.31;4138460;28;20367;-69
2021/09/09 06:02:59;;;;;;;8.52;3.42;;;19.40;99.90;;;19.01;100.00;100604.97;4142675;28;20036;-69
2021/09/09 06:05:00;;;;;;;6.93;3.03;;;19.40;99.90;;;19.09;100.00;100609.25;4144985;28;20022;-70
2021/09/09 06:07:02;;;;;;;6.88;3.35;;;19.40;99.90;;;19.04;100.00;100609.91;4137979;28;20030;-69
2021/09/09 06:09:04;;;;;;;9.40;3.30;;;19.40;99.90;;;19.16;100.00;100623.41;4138049;28;20092;-69
2021/09/09 06:11:04;;;;;;;7.75;3.47;;;19.40;99.90;;;19.04;100.00;100614.41;4138200;28;20041;-69
2021/09/09 06:13:05;;;;;;;10.52;3.97;;;19.40;99.90;;;19.15;100.00;100617.22;4138223;28;20027;-69
2021/09/09 06:15:07;;;;;;;9.68;2.65;;;19.40;99.90;;;19.10;100.00;100618.91;4138158;28;20092;-69
2021/09/09 06:17:08;;;;;;;11.65;3.65;;;19.50;99.90;;;19.13;100.00;100618.47;4138053;28;20397;-69
2021/09/09 06:19:09;;;;;;;10.40;3.78;;;19.50;99.90;;;19.17;100.00;100622.38;4137840;28;20030;-69
2021/09/09 06:21:10;;;;;;;7.30;2.88;;;19.50;99.90;;;19.26;100.00;100618.41;4137898;28;20022;-69
2021/09/09 06:23:11;;;;;;;13.73;3.47;;;19.50;99.90;;;19.31;100.00;100619.41;4138039;28;20058;-69
2021/09/09 06:25:12;;;;;;;11.75;3.40;;;19.50;99.90;;;19.27;100.00;100622.72;4137990;28;20014;-69
2021/09/09 06:27:13;;;;;;;8.68;3.22;;;19.50;99.90;;;19.27;100.00;100625.38;4137946;28;20078;-69
2021/09/09 06:29:13;;;;;;;6.55;3.30;;;19.50;99.90;;;19.21;100.00;100621.72;4137594;28;20038;-69
2021/09/09 06:31:15;;;;;;;10.07;3.47;;;19.50;99.90;;;19.27;100.00;100622.72;4148812;28;20029;-69
2021/09/09 06:33:16;;;;;;;9.35;4.15;;;19.60;99.90;;;19.27;100.00;100628.88;4138784;28;20371;-69
2021/09/09 06:35:16;;;;;;;7.85;3.15;;;19.60;99.90;;;19.24;100.00;100618.63;4137648;28;20034;-69
2021/09/09 06:37:18;;;;;;;9.52;3.50;;;19.60;99.90;;;19.31;100.00;100622.06;4137628;28;20026;-69
2021/09/09 06:39:19;;;;;;;11.70;3.78;;;19.60;99.90;;;19.19;100.00;100612.28;4137403;28;20046;-69
2021/09/09 06:41:20;;;;;;;10.10;3.72;;;19.60;99.90;;;19.19;100.00;100618.44;4142987;28;20026;-69
2021/09/09 06:43:21;;;;;;;10.60;3.75;;;19.60;99.90;;;19.27;100.00;100617.34;4142789;28;20034;-69
2021/09/09 06:45:22;;;;;;;11.32;4.35;;;19.60;99.90;;;19.36;100.00;100602.69;4137856;28;20085;-69
2021/09/09 06:47:24;;;;;;;11.32;3.85;;;19.70;99.90;;;19.36;100.00;100613.38;4137907;28;20030;-69
2021/09/09 06:49:24;;;;;;;7.05;3.33;;;19.80;99.90;;;19.45;100.00;100628.19;4137405;28;20033;-69
2021/09/09 06:51:25;;;;;;;10.52;4.15;;;19.80;99.90;;;19.49;100.00;100618.69;4137537;28;20023;-69
2021/09/09 06:53:26;;;;;;;10.15;3.67;;;19.90;99.90;;;19.61;100.00;100627.66;4137557;28;20033;-68
2021/09/09 06:55:27;;;;;;;7.93;3.40;;;20.00;99.90;;;19.71;100.00;100609.25;4136569;28;20042;-69
2021/09/09 06:57:28;;;;;;;8.70;3.40;;;20.10;99.90;;;19.75;100.00;100612.31;4137543;28;20058;-68
2021/09/09 06:59:29;;;;;;;9.63;3.30;;;20.30;99.90;;;19.82;100.00;100624.59;4137534;28;20045;-69
2021/09/09 07:01:30;;;;;;;9.07;3.38;;;20.30;99.90;;;19.89;100.00;100620.00;4136137;28;20029;-68
2021/09/09 07:03:31;;;;;;;9.18;3.47;;;20.40;99.90;;;19.96;100.00;100616.44;4147846;28;20034;-68
2021/09/09 07:05:32;;;;;;;11.93;3.47;;;20.40;99.90;;;19.91;100.00;100619.78;4139856;28;20061;-68
2021/09/09 07:07:33;;;;;;;9.27;3.88;;;20.40;99.90;;;19.99;100.00;100616.00;4137258;28;20026;-68
2021/09/09 07:09:34;;;;;;;13.98;3.72;;;20.40;99.90;;;19.95;100.00;100610.25;4137258;28;20041;-68
2021/09/09 07:11:35;;;;;;;9.40;4.15;;;20.50;99.90;;;19.95;100.00;100614.81;4137259;28;20470;-68
2021/09/09 07:13:36;;;;;;;11.43;4.15;;;20.60;99.90;;;19.99;100.00;100614.16;4137123;28;20065;-68
2021/09/09 07:15:38;;;;;;;8.65;3.75;;;20.60;99.90;;;20.08;100.00;100612.81;4137269;28;20567;-68
2021/09/09 07:17:39;;;;;;;14.27;4.57;;;20.70;99.90;;;20.18;100.00;100613.16;4137206;28;20375;-68
2021/09/09 07:19:40;;;;;;;11.73;4.68;;;20.80;99.90;;;20.28;100.00;100618.81;4137122;28;20101;-68
2021/09/09 07:21:43;;;;;;;13.63;5.32;;;20.90;99.90;;;20.33;100.00;100616.31;4136836;28;20053;-69
2021/09/09 07:23:44;;;;;;;10.25;4.03;;;20.90;99.90;;;20.37;100.00;100614.00;4137150;28;20489;-69
2021/09/09 07:25:46;;;;;;;16.30;4.18;;;21.00;99.90;;;20.33;100.00;100610.97;4136883;28;20030;-69
2021/09/09 07:27:47;;;;;;;12.93;5.47;;;21.10;99.90;;;20.30;100.00;100614.09;4137028;28;20235;-69
2021/09/09 07:29:48;;;;;;;12.13;4.38;;;21.10;99.90;;;20.34;100.00;100625.97;4137033;28;20034;-69
2021/09/09 07:31:49;;;;;;;12.93;4.15;;;21.10;99.90;;;20.40;100.00;100614.38;4136815;28;20034;-69
2021/09/09 07:33:50;;;;;;;11.05;3.72;;;21.10;99.90;;;20.50;100.00;100616.53;4136931;28;20034;-69
2021/09/09 07:35:51;;;;;;;7.82;3.90;;;21.10;99.90;;;20.58;100.00;100618.13;4136758;28;20440;-69
2021/09/09 07:37:52;;;;;;;11.48;4.07;;;21.20;99.90;;;20.62;100.00;100614.75;4136728;28;20057;-69
2021/09/09 07:39:53;;;;;;;10.75;3.53;;;21.30;99.90;;;20.59;100.00;100617.88;4136594;28;20035;-69
2021/09/09 07:41:54;;;;;;;9.27;4.70;;;21.20;99.90;;;20.55;100.00;100627.38;4136704;28;20405;-69
2021/09/09 07:43:55;;;;;;;7.82;3.63;;;21.20;99.90;;;20.50;100.00;100623.75;4136719;28;20022;-69
2021/09/09 07:45:56;;;;;;;13.15;4.45;;;21.20;99.90;;;20.54;100.00;100627.63;4136758;28;20034;-69
2021/09/09 07:47:58;;;;;;;12.35;4.55;;;21.20;99.90;;;20.50;100.00;100631.78;4136541;28;20077;-69
2021/09/09 07:49:59;;;;;;;10.00;3.70;;;21.20;99.90;;;20.49;100.00;100620.25;4136740;28;20116;-69
2021/09/09 07:52:00;;;;;;;10.07;4.10;;;21.10;99.90;;;20.44;100.00;100630.81;4136505;28;20030;-69
2021/09/09 07:54:01;;;;;;;7.65;3.90;;;21.10;99.90;;;20.43;100.00;100626.50;4136668;28;20061;-69
2021/09/09 07:56:04;;;;;;;9.70;3.95;;;21.10;99.90;;;20.37;100.00;100630.88;4136417;28;20030;-69
2021/09/09 07:58:04;;;;;;;10.63;4.15;;;21.00;99.90;;;20.29;100.00;100617.78;4136642;28;20392;-69
2021/09/09 08:00:07;;;;;;;8.52;3.92;;;21.00;99.90;;;20.36;100.00;100625.78;4136552;28;20062;-69
2021/09/09 08:02:08;;;;;;;5.82;3.70;;;20.90;99.90;;;20.31;100.00;100623.75;4136505;28;20030;-69
2021/09/09 08:04:10;;;;;;;6.95;3.45;;;20.90;99.90;;;20.43;100.00;100618.47;4149486;28;20460;-69
2021/09/09 08:06:11;;;;;;;13.18;3.95;;;20.90;99.90;;;20.42;100.00;100624.88;4136219;28;20073;-69
2021/09/09 08:08:12;;;;;;;6.95;3.40;;;21.00;99.90;;;20.37;100.00;100624.72;4136509;28;20041;-69
2021/09/09 08:10:16;;;;;;;7.07;3.70;;;21.00;99.90;;;20.51;100.00;100622.72;4136384;28;20022;-67
2021/09/09 08:12:17;;;;;;;10.30;3.40;;;21.10;99.90;;;20.53;100.00;100613.41;4136223;28;20121;-68
2021/09/09 08:14:18;;;;;;;7.97;3.72;;;21.10;99.90;;;20.59;100.00;100625.91;4136112;28;20026;-69
2021/09/09 08:16:20;;;;;;;8.80;3.70;;;21.20;99.90;;;20.65;100.00;100625.03;4151331;28;20120;-69
2021/09/09 08:18:21;;;;;;;7.38;3.95;;;21.30;99.90;;;20.68;100.00;100619.22;4134932;28;20036;-69